Glou Point, Virginia
Current Conditions -  °F | °C
As of 10:54 AM on Wednesday 22 Oct 2014 (Local Time) from KPHF Reporting Station
Overcast Overcast  
Wind Chill: 59°   Ceiling: 1600
Heat Index: 59°   Visibility: 10mi
Dew Point: 52°   Wind: 16mph
Humidity: 78%   Direction: 330°NNW
Pressure: 29.85"   Gusts: 23mph
Location:  37.2577°N, 76.4965°W
Report Text: KPHF 221454Z 33014G20KT 10SM BKN016 OVC025 15/11 A2985 RMK AO2 SLP108 60007 T01500111 50004
Loading
Personal Weather Stations






























Interactive Weather Map
Tropical Storm Tracking
New forecast layout! Learn more

10-Day Weather Forecast

Advertisements
Track Severe Weather on mobile